Time;durP1;ratioP1;P1;durP2;ratioP2;P2;SDS_P1;SDS_P2;PMS_P1;PMS_P2;Temp;Humidity;BMP_temperature;BMP_pressure;BME280_temperature;BME280_humidity;BME280_pressure;Samples;Min_cycle;Max_cycle;Signal;HPM_P1;HPM_P2
2023/09/15 01:02:07;;;;;;;16.48;7.55;;;19.90;59.00;;;;;;5019508;28;20068;-70
2023/09/15 01:04:35;;;;;;;16.10;6.80;;;20.00;58.60;;;;;;4993258;28;20137;-70
2023/09/15 01:07:05;;;;;;;15.05;6.90;;;20.00;57.00;;;;;;4994668;28;20094;-70
2023/09/15 01:09:33;;;;;;;19.35;7.50;;;20.00;58.30;;;;;;4994826;28;20117;-71
2023/09/15 01:12:00;;;;;;;24.23;7.75;;;20.10;58.70;;;;;;5012045;28;20033;-71
2023/09/15 01:14:27;;;;;;;21.42;7.15;;;20.20;57.90;;;;;;5012146;28;20488;-71
2023/09/15 01:16:57;;;;;;;18.27;8.10;;;20.20;57.90;;;;;;5012099;28;20026;-71
2023/09/15 01:19:53;;;;;;;13.10;7.03;;;20.20;58.10;;;;;;4994878;28;20040;-70
2023/09/15 01:22:55;;;;;;;15.27;7.10;;;20.30;57.20;;;;;;5012486;28;20029;-71
2023/09/15 01:25:36;;;;;;;15.32;6.80;;;20.40;57.30;;;;;;5004942;28;20050;-71
2023/09/15 01:28:24;;;;;;;22.00;7.30;;;20.40;57.00;;;;;;4994758;28;20046;-70
2023/09/15 01:30:52;;;;;;;16.75;6.35;;;20.50;57.60;;;;;;5011662;28;20110;-71
2023/09/15 01:33:19;;;;;;;10.15;5.15;;;20.50;56.20;;;;;;4994818;28;20116;-71
2023/09/15 01:35:47;;;;;;;16.42;6.78;;;20.50;55.40;;;;;;4978584;28;20076;-71
2023/09/15 01:38:14;;;;;;;11.10;5.57;;;20.60;56.40;;;;;;5010870;28;20053;-71
2023/09/15 01:40:45;;;;;;;12.50;4.53;;;20.60;55.50;;;;;;5011588;28;20026;-71
2023/09/15 01:43:13;;;;;;;12.25;5.07;;;20.80;55.70;;;;;;5011814;28;20417;-71
2023/09/15 01:45:40;;;;;;;10.52;4.63;;;20.80;56.20;;;;;;5011810;28;20041;-71
2023/09/15 01:48:07;;;;;;;11.38;4.82;;;20.90;54.90;;;;;;5011673;28;20026;-70
2023/09/15 01:50:34;;;;;;;10.25;4.22;;;20.90;54.70;;;;;;4978294;28;20073;-70
2023/09/15 01:53:03;;;;;;;12.80;4.70;;;21.00;55.00;;;;;;4994102;28;20138;-71
2023/09/15 01:55:31;;;;;;;8.98;4.18;;;21.00;56.20;;;;;;5011702;28;20052;-70
2023/09/15 01:57:58;;;;;;;8.60;4.15;;;21.00;55.50;;;;;;5011847;28;20100;-71
2023/09/15 02:00:32;;;;;;;11.43;4.72;;;21.10;55.60;;;;;;5010585;28;20034;-71
2023/09/15 02:02:59;;;;;;;16.17;4.57;;;21.10;56.10;;;;;;5023981;28;20041;-71
2023/09/15 02:05:26;;;;;;;9.73;4.10;;;21.20;54.80;;;;;;5031183;28;20048;-71
2023/09/15 02:07:53;;;;;;;7.05;3.83;;;21.20;55.30;;;;;;5031387;28;20033;-71
2023/09/15 02:10:21;;;;;;;14.05;4.03;;;21.20;55.10;;;;;;5031383;28;20029;-72
2023/09/15 02:12:48;;;;;;;7.10;4.13;;;21.30;55.30;;;;;;5031358;28;20029;-71
2023/09/15 02:15:17;;;;;;;7.80;4.43;;;21.30;55.70;;;;;;5031444;28;20121;-71
2023/09/15 02:17:44;;;;;;;9.85;5.05;;;21.30;54.70;;;;;;5031420;28;20030;-72
2023/09/15 02:20:11;;;;;;;12.70;4.97;;;21.30;55.50;;;;;;5032691;28;20079;-71
2023/09/15 02:22:42;;;;;;;16.13;5.28;;;21.30;55.40;;;;;;5034973;28;20029;-71
2023/09/15 02:25:10;;;;;;;9.13;4.20;;;21.40;56.60;;;;;;5034906;28;20064;-71
2023/09/15 02:27:38;;;;;;;12.15;4.80;;;21.40;55.70;;;;;;5034528;28;20476;-71
2023/09/15 02:30:05;;;;;;;8.65;4.70;;;21.40;56.00;;;;;;5034722;28;20029;-71
2023/09/15 02:32:33;;;;;;;12.30;5.00;;;21.40;56.40;;;;;;5034566;28;20086;-71
2023/09/15 02:35:00;;;;;;;7.28;4.50;;;21.40;56.10;;;;;;5034373;28;20022;-71
2023/09/15 02:37:27;;;;;;;11.35;4.43;;;21.30;56.40;;;;;;5034474;28;20037;-71
2023/09/15 02:39:55;;;;;;;15.68;4.30;;;21.30;56.60;;;;;;5034644;28;20036;-71
2023/09/15 02:42:22;;;;;;;9.60;4.00;;;21.30;55.70;;;;;;5034705;28;20033;-72
2023/09/15 02:44:49;;;;;;;12.25;4.03;;;21.30;55.90;;;;;;5034347;28;20391;-72
2023/09/15 02:47:16;;;;;;;12.23;5.22;;;21.30;55.60;;;;;;5034349;28;20041;-71
2023/09/15 02:49:44;;;;;;;10.77;4.70;;;21.40;56.80;;;;;;5034486;28;20025;-71
2023/09/15 02:52:12;;;;;;;10.23;4.40;;;21.30;56.60;;;;;;5034541;28;20034;-71
2023/09/15 02:54:39;;;;;;;12.43;4.20;;;21.30;55.20;;;;;;5034159;28;20039;-71
2023/09/15 02:57:06;;;;;;;7.53;4.03;;;21.40;55.00;;;;;;5034049;28;20116;-71
2023/09/15 02:59:33;;;;;;;11.13;4.68;;;21.40;54.90;;;;;;5033964;28;20435;-71
2023/09/15 03:02:00;;;;;;;7.40;4.47;;;21.40;55.80;;;;;;5034077;28;20037;-71
2023/09/15 03:04:28;;;;;;;9.98;4.70;;;21.40;55.80;;;;;;5033877;28;20099;-71
2023/09/15 03:06:55;;;;;;;10.13;5.32;;;21.50;55.00;;;;;;5034097;28;20030;-71
2023/09/15 03:09:23;;;;;;;11.07;4.32;;;21.50;55.80;;;;;;5033790;28;20050;-71
2023/09/15 03:11:50;;;;;;;12.02;4.50;;;21.50;54.80;;;;;;5016180;28;20080;-71
2023/09/15 03:14:18;;;;;;;21.58;5.55;;;21.50;54.60;;;;;;5033944;28;20391;-71
2023/09/15 03:16:45;;;;;;;13.43;5.35;;;21.60;55.20;;;;;;5033939;28;20033;-71
2023/09/15 03:19:13;;;;;;;19.75;5.30;;;21.60;55.20;;;;;;5033654;28;20364;-71
2023/09/15 03:21:40;;;;;;;7.80;4.32;;;21.60;54.90;;;;;;5034153;28;20079;-71
2023/09/15 03:24:08;;;;;;;12.50;4.72;;;21.70;54.40;;;;;;5034079;28;20044;-71
2023/09/15 03:26:36;;;;;;;9.73;5.18;;;21.70;54.80;;;;;;5016030;28;20045;-71
2023/09/15 03:29:03;;;;;;;9.43;4.07;;;21.70;55.10;;;;;;5033646;28;20086;-71
2023/09/15 03:31:30;;;;;;;13.05;5.45;;;21.70;54.60;;;;;;5032995;28;20033;-71
2023/09/15 03:33:57;;;;;;;11.73;5.30;;;21.70;56.30;;;;;;5033363;28;20038;-70
2023/09/15 03:36:29;;;;;;;19.58;5.90;;;21.70;55.70;;;;;;5033158;28;20517;-71
2023/09/15 03:38:56;;;;;;;19.15;5.78;;;21.70;56.90;;;;;;5033261;28;20038;-71
2023/09/15 03:41:27;;;;;;;16.90;6.28;;;21.70;56.60;;;;;;5033282;28;20026;-71
2023/09/15 03:43:55;;;;;;;13.27;5.38;;;21.70;56.50;;;;;;5033305;28;20108;-71
2023/09/15 03:46:23;;;;;;;22.25;6.18;;;21.60;56.60;;;;;;5033069;28;20041;-71
2023/09/15 03:48:51;;;;;;;18.75;6.10;;;21.60;57.00;;;;;;5032012;28;20033;-71
2023/09/15 03:51:18;;;;;;;15.90;6.13;;;21.60;56.90;;;;;;5015765;28;20079;-71
2023/09/15 03:53:45;;;;;;;15.93;5.88;;;21.60;57.20;;;;;;5015108;28;20480;-71
2023/09/15 03:56:12;;;;;;;10.27;4.20;;;21.60;57.70;;;;;;5033102;28;20069;-71
2023/09/15 03:58:40;;;;;;;11.98;4.38;;;21.60;56.70;;;;;;5032987;28;20033;-71
2023/09/15 04:01:08;;;;;;;7.40;3.90;;;21.50;54.70;;;;;;5033012;28;20025;-71
2023/09/15 04:03:36;;;;;;;11.85;3.83;;;21.70;54.30;;;;;;5032436;28;20057;-71
2023/09/15 04:06:04;;;;;;;10.40;4.22;;;21.70;54.30;;;;;;5032674;28;20128;-71
2023/09/15 04:08:31;;;;;;;9.45;3.90;;;21.80;54.30;;;;;;5032677;28;20443;-71
2023/09/15 04:10:59;;;;;;;9.00;3.80;;;21.80;54.20;;;;;;5032755;28;20101;-71
2023/09/15 04:13:26;;;;;;;7.55;4.25;;;21.80;54.20;;;;;;5032973;28;20029;-71
2023/09/15 04:15:56;;;;;;;12.30;4.18;;;21.80;54.80;;;;;;5032864;28;20056;-71
2023/09/15 04:18:23;;;;;;;13.05;4.55;;;21.80;54.00;;;;;;5015605;28;20120;-71
2023/09/15 04:20:51;;;;;;;9.02;4.13;;;21.80;55.10;;;;;;5032698;28;20029;-71
2023/09/15 04:23:18;;;;;;;15.73;4.40;;;21.80;55.50;;;;;;5032655;28;20060;-71
2023/09/15 04:25:45;;;;;;;11.43;4.40;;;21.80;54.10;;;;;;5032284;28;20042;-71
2023/09/15 04:28:13;;;;;;;9.85;3.90;;;21.80;54.40;;;;;;5032435;28;20033;-71
2023/09/15 04:30:40;;;;;;;10.63;4.53;;;21.80;53.70;;;;;;5032411;28;20397;-71
2023/09/15 04:33:07;;;;;;;6.63;3.70;;;21.90;54.60;;;;;;5032087;28;20040;-70
2023/09/15 04:35:34;;;;;;;13.90;4.75;;;21.80;54.20;;;;;;5032319;28;20048;-71
2023/09/15 04:38:02;;;;;;;12.18;4.43;;;21.90;53.90;;;;;;5032037;28;20493;-71
2023/09/15 04:40:29;;;;;;;11.77;4.30;;;21.80;54.40;;;;;;5031843;28;20043;-71
2023/09/15 04:42:59;;;;;;;9.75;4.05;;;21.80;53.80;;;;;;5031503;28;20160;-71
2023/09/15 04:45:26;;;;;;;8.65;3.63;;;21.80;53.90;;;;;;5032070;28;20048;-70
2023/09/15 04:47:54;;;;;;;8.32;3.75;;;21.90;53.50;;;;;;5031935;28;20164;-71
2023/09/15 04:50:21;;;;;;;16.83;4.75;;;21.90;52.90;;;;;;5032173;28;20037;-71
2023/09/15 04:52:48;;;;;;;13.98;4.20;;;21.90;54.00;;;;;;5032104;28;20039;-71
2023/09/15 04:55:15;;;;;;;8.93;3.65;;;21.90;54.30;;;;;;5032093;28;20040;-71
2023/09/15 04:57:42;;;;;;;8.45;3.88;;;21.80;53.50;;;;;;5032111;28;20503;-71
2023/09/15 05:00:21;;;;;;;11.80;4.10;;;21.90;54.20;;;;;;5031879;28;20033;-71
2023/09/15 05:02:48;;;;;;;9.52;3.97;;;21.80;53.50;;;;;;5015771;28;20097;-71
2023/09/15 05:05:15;;;;;;;12.18;3.75;;;21.90;53.10;;;;;;5031784;28;20042;-71
2023/09/15 05:07:42;;;;;;;11.18;3.95;;;21.90;53.70;;;;;;5031876;28;20064;-71
2023/09/15 05:10:10;;;;;;;7.10;3.67;;;21.90;53.40;;;;;;5031825;28;20025;-70
2023/09/15 05:12:37;;;;;;;8.95;4.00;;;21.80;54.00;;;;;;5031578;28;20087;-71
2023/09/15 05:15:06;;;;;;;15.75;3.72;;;21.80;54.70;;;;;;5031814;28;20107;-71
2023/09/15 05:17:33;;;;;;;5.97;3.63;;;21.80;54.50;;;;;;5014450;28;20099;-71
2023/09/15 05:20:00;;;;;;;8.90;3.85;;;21.80;54.00;;;;;;5031493;28;20040;-71
2023/09/15 05:22:27;;;;;;;10.32;4.00;;;21.80;54.30;;;;;;5031568;28;20115;-71
2023/09/15 05:24:55;;;;;;;7.55;3.80;;;21.80;53.50;;;;;;5031831;28;20037;-71
2023/09/15 05:27:22;;;;;;;10.00;3.85;;;21.90;53.70;;;;;;5014228;28;20037;-71
2023/09/15 05:29:50;;;;;;;11.60;3.75;;;21.90;53.10;;;;;;5014071;28;20033;-71
2023/09/15 05:32:18;;;;;;;10.60;3.47;;;21.90;53.70;;;;;;5031543;28;20530;-71
2023/09/15 05:34:45;;;;;;;12.85;3.92;;;21.90;53.00;;;;;;5031568;28;20033;-71
2023/09/15 05:37:13;;;;;;;9.38;3.53;;;22.00;52.80;;;;;;5031716;28;20034;-71
2023/09/15 05:39:40;;;;;;;7.00;3.20;;;22.00;52.90;;;;;;5031587;28;20121;-71
2023/09/15 05:42:07;;;;;;;17.58;4.35;;;22.00;52.60;;;;;;5031141;28;20029;-71
2023/09/15 05:44:34;;;;;;;11.93;3.67;;;22.00;52.80;;;;;;5030953;28;20180;-71
2023/09/15 05:47:01;;;;;;;7.90;3.60;;;22.00;52.10;;;;;;5012485;28;20045;-73
2023/09/15 05:49:29;;;;;;;7.93;3.72;;;22.10;52.30;;;;;;5030011;28;20022;-74
2023/09/15 05:51:56;;;;;;;11.98;4.07;;;22.00;52.50;;;;;;5029983;28;20117;-73
2023/09/15 05:54:25;;;;;;;7.85;3.30;;;22.00;52.20;;;;;;5015464;28;20036;-74
2023/09/15 05:56:52;;;;;;;9.60;3.80;;;22.00;52.10;;;;;;5035306;28;20460;-74
2023/09/15 05:59:20;;;;;;;11.57;3.58;;;21.90;52.00;;;;;;5035231;28;20089;-74
2023/09/15 06:01:47;;;;;;;10.40;3.20;;;22.00;51.40;;;;;;5034997;28;20794;-73
2023/09/15 06:04:17;;;;;;;6.00;3.20;;;22.00;52.10;;;;;;5034224;28;20125;-74
2023/09/15 06:06:44;;;;;;;6.40;3.85;;;21.90;52.10;;;;;;5034605;28;20095;-73
2023/09/15 06:09:12;;;;;;;7.70;3.60;;;21.90;52.40;;;;;;5033256;28;20038;-73
2023/09/15 06:11:39;;;;;;;7.10;3.72;;;21.80;52.20;;;;;;5033466;28;20476;-75
2023/09/15 06:14:06;;;;;;;15.02;4.55;;;21.80;52.40;;;;;;5032279;28;20479;-75
2023/09/15 06:16:36;;;;;;;9.23;3.70;;;21.80;51.60;;;;;;5031727;28;20029;-75
2023/09/15 06:19:03;;;;;;;8.55;3.85;;;21.80;51.80;;;;;;5031447;28;20037;-75
2023/09/15 06:21:31;;;;;;;9.55;4.05;;;21.80;51.70;;;;;;5032053;28;20507;-75
2023/09/15 06:23:58;;;;;;;9.70;3.47;;;21.80;51.80;;;;;;5030822;28;20060;-75
2023/09/15 06:26:25;;;;;;;7.03;4.25;;;21.80;51.70;;;;;;5010947;28;20043;-75
2023/09/15 06:28:52;;;;;;;19.38;4.05;;;21.80;51.70;;;;;;5022589;28;20128;-76
2023/09/15 06:31:20;;;;;;;17.63;4.65;;;21.80;51.30;;;;;;4994509;28;20113;-78
2023/09/15 06:33:47;;;;;;;8.00;3.70;;;21.80;52.00;;;;;;5006659;28;20349;-78
2023/09/15 06:36:15;;;;;;;10.90;3.70;;;21.80;51.80;;;;;;5030699;28;20038;-78
2023/09/15 08:04:49;;;;;;;11.05;4.60;;;20.40;64.60;;;;;;5036967;28;20473;-71
2023/09/15 08:07:17;;;;;;;9.52;4.53;;;20.30;65.20;;;;;;5045326;28;20132;-71
2023/09/15 08:09:44;;;;;;;14.70;5.15;;;20.30;65.60;;;;;;5049639;28;20025;-71
2023/09/15 08:12:11;;;;;;;12.55;4.55;;;20.30;65.70;;;;;;5049650;28;20065;-71
2023/09/15 08:14:40;;;;;;;9.05;4.32;;;20.30;66.00;;;;;;5026630;28;20447;-71
2023/09/15 08:17:07;;;;;;;9.77;4.20;;;20.30;66.40;;;;;;5030965;28;20034;-71
2023/09/15 08:19:34;;;;;;;10.25;4.25;;;20.20;66.40;;;;;;5028261;28;20033;-71
2023/09/15 08:22:01;;;;;;;11.00;4.03;;;20.20;66.70;;;;;;5029777;28;20055;-70
2023/09/15 08:24:29;;;;;;;9.77;4.22;;;20.10;66.60;;;;;;5029290;28;20041;-71
2023/09/15 08:26:56;;;;;;;16.45;4.57;;;20.20;66.70;;;;;;5040190;28;20048;-70
2023/09/15 08:29:23;;;;;;;9.60;4.03;;;20.10;67.20;;;;;;5032340;28;20041;-70
2023/09/15 08:31:50;;;;;;;14.30;4.25;;;20.10;67.20;;;;;;5028645;28;20111;-70
2023/09/15 08:34:17;;;;;;;10.52;3.92;;;20.10;67.10;;;;;;5029760;28;20111;-71
2023/09/15 08:36:45;;;;;;;12.35;3.90;;;20.00;67.30;;;;;;5029904;28;20032;-70
2023/09/15 08:39:12;;;;;;;12.50;4.22;;;20.00;67.30;;;;;;5045618;28;20041;-71
2023/09/15 08:41:51;;;;;;;11.25;3.75;;;20.00;67.40;;;;;;5049205;28;20048;-70
2023/09/15 08:44:18;;;;;;;11.60;4.32;;;20.00;67.70;;;;;;5022677;28;20120;-71
2023/09/15 08:46:49;;;;;;;12.80;4.00;;;19.90;67.80;;;;;;5039680;28;20064;-70
2023/09/15 08:49:16;;;;;;;12.30;3.65;;;19.90;67.90;;;;;;5011402;28;20040;-71
2023/09/15 08:51:44;;;;;;;11.63;3.67;;;19.90;67.80;;;;;;5012764;28;20450;-70
2023/09/15 08:54:12;;;;;;;9.23;3.95;;;19.90;68.00;;;;;;5039868;28;20104;-70
2023/09/15 08:56:39;;;;;;;7.90;3.70;;;19.90;68.30;;;;;;5026866;28;20030;-70
2023/09/15 08:59:08;;;;;;;11.82;3.40;;;19.80;68.10;;;;;;5010342;28;20028;-70
2023/09/15 09:01:36;;;;;;;10.20;3.55;;;19.80;68.20;;;;;;5009186;28;20057;-71
2023/09/15 09:04:04;;;;;;;9.35;3.95;;;19.80;68.10;;;;;;5024332;28;20041;-70
2023/09/15 09:06:34;;;;;;;9.50;3.85;;;19.80;68.30;;;;;;5015870;28;20085;-71
2023/09/15 09:09:04;;;;;;;12.30;4.20;;;19.80;68.50;;;;;;5012341;28;20045;-71
2023/09/15 09:11:31;;;;;;;10.80;3.65;;;19.80;68.40;;;;;;5045918;28;20056;-71
2023/09/15 09:13:58;;;;;;;8.10;3.35;;;19.80;68.40;;;;;;5014453;28;20069;-71
2023/09/15 09:16:26;;;;;;;11.05;3.95;;;19.70;68.40;;;;;;5049219;28;20479;-71
2023/09/15 09:19:03;;;;;;;13.68;4.10;;;19.70;68.30;;;;;;5048758;28;20033;-71
2023/09/15 09:21:32;;;;;;;14.75;4.03;;;19.70;68.20;;;;;;5049060;28;20033;-71
2023/09/15 09:23:59;;;;;;;14.70;4.18;;;19.70;68.20;;;;;;5031449;28;20037;-71
2023/09/15 09:26:27;;;;;;;10.90;4.30;;;19.70;68.10;;;;;;5010117;28;20045;-71
2023/09/15 09:28:56;;;;;;;9.30;4.00;;;19.70;68.00;;;;;;5012312;28;20041;-72
2023/09/15 09:31:27;;;;;;;10.07;3.95;;;19.70;67.90;;;;;;5031902;28;20449;-72
2023/09/15 09:33:55;;;;;;;11.65;4.22;;;19.70;67.90;;;;;;5032905;28;20044;-73
2023/09/15 09:36:23;;;;;;;10.07;4.45;;;19.60;67.50;;;;;;5011485;28;20038;-72
2023/09/15 09:38:51;;;;;;;12.45;4.20;;;19.70;67.40;;;;;;5052030;28;20045;-74
2023/09/15 09:41:20;;;;;;;9.98;4.18;;;19.70;67.10;;;;;;5036119;28;20064;-72
2023/09/15 09:43:48;;;;;;;9.88;4.07;;;19.70;67.00;;;;;;4998691;28;20069;-73
2023/09/15 09:46:22;;;;;;;8.93;4.38;;;19.70;66.70;;;;;;5015258;28;20041;-73
2023/09/15 09:48:50;;;;;;;9.85;4.43;;;19.70;66.60;;;;;;5034020;28;20029;-74
2023/09/15 09:51:18;;;;;;;8.32;4.30;;;19.70;66.50;;;;;;5052201;28;20037;-73
2023/09/15 09:53:45;;;;;;;7.13;3.58;;;19.70;66.50;;;;;;5028783;28;20387;-73
2023/09/15 09:56:12;;;;;;;16.10;4.82;;;19.70;66.50;;;;;;5014280;28;20104;-75
2023/09/15 09:58:40;;;;;;;9.77;4.13;;;19.70;66.50;;;;;;5031326;28;20029;-76
2023/09/15 10:01:09;;;;;;;12.40;4.55;;;19.70;66.30;;;;;;5032113;28;20044;-75
2023/09/15 10:03:37;;;;;;;17.77;4.38;;;19.70;66.40;;;;;;5014585;28;20132;-74
2023/09/15 10:06:04;;;;;;;12.73;5.07;;;19.70;66.10;;;;;;5034380;28;20114;-73
2023/09/15 10:08:32;;;;;;;9.48;4.22;;;19.60;66.60;;;;;;5012363;28;20115;-73
2023/09/15 10:10:59;;;;;;;10.15;4.35;;;19.60;66.60;;;;;;5032650;28;20042;-74
2023/09/15 10:13:27;;;;;;;11.90;4.50;;;19.60;66.50;;;;;;5014200;28;20395;-72
2023/09/15 10:15:54;;;;;;;10.30;4.50;;;19.50;66.40;;;;;;5036059;28;20033;-73
2023/09/15 10:18:22;;;;;;;11.35;4.65;;;19.50;66.00;;;;;;5017308;28;20025;-75
2023/09/15 10:20:54;;;;;;;9.23;4.15;;;19.50;65.60;;;;;;5050566;28;20060;-76
2023/09/15 10:23:22;;;;;;;10.20;5.00;;;19.60;65.50;;;;;;5030082;28;20120;-75
2023/09/15 10:25:55;;;;;;;10.77;4.43;;;19.60;65.40;;;;;;5031640;28;20049;-74
2023/09/15 10:28:25;;;;;;;13.52;4.55;;;19.60;65.30;;;;;;5044722;28;20033;-74
2023/09/15 10:30:56;;;;;;;7.93;4.10;;;19.60;65.10;;;;;;5050507;28;20037;-77
2023/09/15 10:33:23;;;;;;;;;;;19.60;65.10;;;;;;5040592;28;20065;-73
2023/09/15 10:35:50;;;;;;;8.50;4.28;;;19.60;64.90;;;;;;5031234;28;20387;-74
2023/09/15 10:38:30;;;;;;;8.70;4.72;;;19.60;64.90;;;;;;5024363;28;20029;-74
2023/09/15 10:41:00;;;;;;;7.18;4.15;;;19.50;64.80;;;;;;5012570;28;20428;-74
2023/09/15 10:43:27;;;;;;;;;;;19.50;64.70;;;;;;5031535;28;20444;-76
2023/09/15 10:46:06;;;;;;;9.13;4.57;;;19.50;64.70;;;;;;5013793;28;20399;-76
2023/09/15 10:48:51;;;;;;;11.82;4.80;;;19.50;64.80;;;;;;5049976;28;20041;-73
2023/09/15 10:51:19;;;;;;;7.82;4.78;;;19.50;64.90;;;;;;5030715;28;20396;-75
2023/09/15 10:53:50;;;;;;;10.43;4.88;;;19.40;64.90;;;;;;5008411;28;20436;-73
2023/09/15 10:56:18;;;;;;;7.82;4.13;;;19.40;65.00;;;;;;4998235;28;20121;-74
2023/09/15 10:58:49;;;;;;;10.82;4.80;;;19.40;64.80;;;;;;5050044;28;20364;-74
2023/09/15 11:01:16;;;;;;;8.23;4.78;;;19.40;64.60;;;;;;5049832;28;20143;-72
2023/09/15 11:03:44;;;;;;;10.02;4.47;;;19.40;64.60;;;;;;5051064;28;20503;-74
2023/09/15 11:06:15;;;;;;;8.52;4.28;;;19.40;64.40;;;;;;5032375;28;20571;-75
2023/09/15 11:08:42;;;;;;;10.40;4.70;;;19.40;64.30;;;;;;5034573;28;20041;-72
2023/09/15 11:11:10;;;;;;;12.25;4.93;;;19.40;64.40;;;;;;5049773;28;20513;-73
2023/09/15 11:13:38;;;;;;;13.27;4.72;;;19.40;64.30;;;;;;5049773;28;20028;-73
2023/09/15 11:16:05;;;;;;;8.50;5.13;;;19.40;64.10;;;;;;5018302;28;20450;-70
2023/09/15 11:18:36;;;;;;;13.13;4.68;;;19.30;64.00;;;;;;5012920;28;20060;-71
2023/09/15 11:21:05;;;;;;;12.07;4.57;;;19.30;64.00;;;;;;5013482;28;20076;-72
2023/09/15 11:23:32;;;;;;;18.40;5.05;;;19.40;63.80;;;;;;5029695;28;20100;-70
2023/09/15 11:26:04;;;;;;;12.18;4.85;;;19.40;63.90;;;;;;5010091;28;20052;-71
2023/09/15 11:28:35;;;;;;;12.48;4.40;;;19.30;64.20;;;;;;5012961;28;20060;-72
2023/09/15 11:31:06;;;;;;;11.30;5.20;;;19.30;64.30;;;;;;5013324;28;20049;-72
2023/09/15 11:33:34;;;;;;;9.93;4.38;;;19.20;64.40;;;;;;5016898;28;20061;-72
2023/09/15 11:36:02;;;;;;;14.73;4.78;;;19.20;64.30;;;;;;5045388;28;20041;-75
2023/09/15 11:38:29;;;;;;;8.85;4.45;;;19.20;64.00;;;;;;5012765;28;20061;-73
2023/09/15 11:40:56;;;;;;;10.05;4.85;;;19.20;65.10;;;;;;5012860;28;20108;-72
2023/09/15 11:43:26;;;;;;;10.73;4.72;;;19.10;65.40;;;;;;5032121;28;20033;-74
2023/09/15 11:45:53;;;;;;;;;;;19.10;65.50;;;;;;5047900;28;20057;-74
2023/09/15 11:48:21;;;;;;;13.55;4.50;;;19.00;66.20;;;;;;5029335;28;20353;-71
2023/09/15 11:50:49;;;;;;;19.02;5.03;;;18.90;66.80;;;;;;5012929;28;20113;-74
2023/09/15 11:53:26;;;;;;;13.43;5.00;;;18.80;67.20;;;;;;5026581;28;20041;-71
2023/09/15 11:55:53;;;;;;;28.38;5.47;;;18.80;67.30;;;;;;5029800;28;20108;-71
2023/09/15 11:58:21;;;;;;;12.50;5.45;;;18.80;67.50;;;;;;5029879;28;20038;-71
2023/09/15 12:00:48;;;;;;;9.48;4.53;;;18.80;67.30;;;;;;4996270;28;20073;-72
2023/09/15 12:03:18;;;;;;;10.50;4.65;;;18.80;67.00;;;;;;5012821;28;20048;-71
2023/09/15 12:05:45;;;;;;;9.80;4.63;;;18.80;67.40;;;;;;5017379;28;20061;-72
2023/09/15 12:08:12;;;;;;;8.80;5.03;;;18.80;67.50;;;;;;5028853;28;20091;-72
2023/09/15 12:10:42;;;;;;;13.80;5.30;;;18.70;67.70;;;;;;5026148;28;20028;-72
2023/09/15 12:13:10;;;;;;;15.73;5.05;;;18.70;67.40;;;;;;5031570;28;20041;-73
2023/09/15 12:15:37;;;;;;;13.68;5.30;;;18.80;66.90;;;;;;5039573;28;20041;-71
2023/09/15 12:18:05;;;;;;;12.60;4.85;;;18.80;66.70;;;;;;5028346;28;20041;-72
2023/09/15 12:20:38;;;;;;;10.95;5.43;;;18.80;66.30;;;;;;5014236;28;20044;-72
2023/09/15 12:23:15;;;;;;;12.15;4.65;;;18.90;66.30;;;;;;5040127;28;20502;-71
2023/09/15 12:25:43;;;;;;;11.65;4.93;;;18.80;66.50;;;;;;5046548;28;20053;-71
2023/09/15 12:28:12;;;;;;;9.02;4.72;;;18.80;66.70;;;;;;5037620;28;20030;-71
2023/09/15 12:30:44;;;;;;;12.25;5.30;;;18.80;67.60;;;;;;5010450;28;20099;-72
2023/09/15 12:33:11;;;;;;;12.82;4.88;;;18.80;67.20;;;;;;5013738;28;20025;-73
2023/09/15 12:35:42;;;;;;;12.82;5.28;;;18.80;66.80;;;;;;5028935;28;20044;-73
2023/09/15 12:38:10;;;;;;;;;;;18.70;67.50;;;;;;5029582;28;20064;-73
2023/09/15 12:40:38;;;;;;;18.77;5.05;;;18.70;68.10;;;;;;5028423;28;20430;-74
2023/09/15 12:43:06;;;;;;;14.55;4.97;;;18.50;68.60;;;;;;5029671;28;20484;-75
2023/09/15 12:45:33;;;;;;;14.27;5.60;;;18.50;69.30;;;;;;5029442;28;20092;-73
2023/09/15 12:48:00;;;;;;;17.95;5.22;;;18.50;69.90;;;;;;5038468;28;20033;-73
2023/09/15 12:50:27;;;;;;;12.60;4.80;;;18.40;69.20;;;;;;5037483;28;20048;-72
2023/09/15 12:52:55;;;;;;;10.32;4.93;;;18.30;69.30;;;;;;5014753;28;20056;-73
2023/09/15 12:55:23;;;;;;;10.00;4.50;;;18.30;68.40;;;;;;5032124;28;20041;-72
2023/09/15 12:57:50;;;;;;;12.05;4.88;;;18.30;68.30;;;;;;5031711;28;20106;-72
2023/09/15 13:00:17;;;;;;;9.98;4.88;;;18.30;68.90;;;;;;5040828;28;20061;-72
2023/09/15 13:02:45;;;;;;;13.55;5.22;;;18.30;69.30;;;;;;5051439;28;20083;-72
2023/09/15 13:05:12;;;;;;;10.35;4.55;;;18.30;69.50;;;;;;5051375;28;20106;-72
2023/09/15 13:07:43;;;;;;;14.50;5.50;;;18.30;69.50;;;;;;5033639;28;20037;-72
2023/09/15 13:10:13;;;;;;;7.65;3.95;;;18.30;69.60;;;;;;5042545;28;20048;-72
2023/09/15 13:12:41;;;;;;;11.65;4.95;;;18.20;69.60;;;;;;5031993;28;20387;-72
2023/09/15 13:15:09;;;;;;;13.05;5.03;;;18.20;69.90;;;;;;5013675;28;20092;-72
2023/09/15 13:17:38;;;;;;;9.07;4.88;;;18.20;69.70;;;;;;5013332;28;20096;-72
2023/09/15 13:20:08;;;;;;;11.25;4.75;;;18.20;69.70;;;;;;5031017;28;20116;-72
2023/09/15 13:22:36;;;;;;;8.73;4.50;;;18.10;69.50;;;;;;5031782;28;20037;-72
2023/09/15 13:25:04;;;;;;;8.07;4.30;;;18.20;69.40;;;;;;5031881;28;20037;-72
2023/09/15 13:27:32;;;;;;;8.10;4.57;;;18.20;69.20;;;;;;5014511;28;20052;-72
2023/09/15 13:30:00;;;;;;;9.48;4.70;;;18.20;69.60;;;;;;5036755;28;20044;-72
2023/09/15 13:32:27;;;;;;;8.80;4.82;;;18.20;69.20;;;;;;5041908;28;20547;-72
2023/09/15 13:34:57;;;;;;;11.07;4.35;;;18.20;69.40;;;;;;5040089;28;20034;-72
2023/09/15 13:37:24;;;;;;;;;;;18.10;70.60;;;;;;5051808;28;20104;-72
2023/09/15 13:39:51;;;;;;;10.90;4.50;;;18.00;70.90;;;;;;5044819;28;19908;-71
2023/09/15 13:42:32;;;;;;;9.63;4.57;;;18.00;70.70;;;;;;5041161;28;20052;-72
2023/09/15 13:45:00;;;;;;;9.38;4.43;;;17.90;70.50;;;;;;5033936;28;20045;-72
2023/09/15 13:47:34;;;;;;;10.07;4.72;;;17.90;70.30;;;;;;5035839;28;20550;-71
2023/09/15 13:50:02;;;;;;;11.70;4.28;;;17.90;70.20;;;;;;5016465;28;20037;-72
2023/09/15 13:52:30;;;;;;;9.82;4.88;;;17.90;70.60;;;;;;5051003;28;20037;-71
2023/09/15 13:54:58;;;;;;;10.73;5.03;;;17.90;70.50;;;;;;5039828;28;20042;-71
2023/09/15 13:57:25;;;;;;;7.97;4.97;;;17.90;70.70;;;;;;5031377;28;20041;-72
2023/09/15 13:59:53;;;;;;;9.43;4.88;;;17.80;71.20;;;;;;5015550;28;20128;-72
2023/09/15 14:02:20;;;;;;;10.13;4.70;;;17.70;70.60;;;;;;5050958;28;20033;-72
2023/09/15 14:04:47;;;;;;;7.97;4.78;;;17.70;71.30;;;;;;5040325;28;20053;-72
2023/09/15 14:07:15;;;;;;;9.93;5.07;;;17.70;71.10;;;;;;5031138;28;20037;-72
2023/09/15 14:09:42;;;;;;;11.73;4.90;;;17.60;71.10;;;;;;5030607;28;20045;-72
2023/09/15 14:12:10;;;;;;;13.48;5.28;;;17.70;71.10;;;;;;5030945;28;20116;-72
2023/09/15 14:14:37;;;;;;;10.15;4.88;;;17.70;70.40;;;;;;5031429;28;20068;-73
2023/09/15 14:17:06;;;;;;;13.00;5.32;;;17.70;70.10;;;;;;5043023;28;20086;-72
2023/09/15 14:19:34;;;;;;;8.90;5.13;;;17.70;70.70;;;;;;5052048;28;20028;-72
2023/09/15 14:22:02;;;;;;;9.68;4.75;;;17.70;70.60;;;;;;5054631;28;20029;-72
2023/09/15 14:24:34;;;;;;;8.25;4.50;;;17.70;70.80;;;;;;5047966;28;20028;-71
2023/09/15 14:27:02;;;;;;;9.13;4.65;;;17.70;71.20;;;;;;5034301;28;20049;-71
2023/09/15 14:29:30;;;;;;;10.13;5.57;;;17.70;71.50;;;;;;5015998;28;20492;-72
2023/09/15 14:32:00;;;;;;;7.50;4.85;;;17.60;71.30;;;;;;5054694;28;20423;-72
2023/09/15 14:34:27;;;;;;;10.25;5.22;;;17.60;71.00;;;;;;5048386;28;20041;-72
2023/09/15 14:36:54;;;;;;;8.40;5.18;;;17.50;71.50;;;;;;5034611;28;20117;-72
2023/09/15 14:39:22;;;;;;;7.97;4.82;;;17.40;71.90;;;;;;5033143;28;20289;-72
2023/09/15 14:41:49;;;;;;;14.98;5.25;;;17.50;71.70;;;;;;5034222;28;20210;-72
2023/09/15 14:44:20;;;;;;;8.98;5.13;;;17.40;71.50;;;;;;5034231;28;20515;-72
2023/09/15 14:46:47;;;;;;;11.00;5.00;;;17.40;72.00;;;;;;5034460;28;20061;-72
2023/09/15 14:49:15;;;;;;;14.45;5.47;;;17.40;72.10;;;;;;5034102;28;20025;-72
2023/09/15 14:51:43;;;;;;;11.30;5.30;;;17.40;73.00;;;;;;5017712;28;20033;-72
2023/09/15 14:54:10;;;;;;;6.82;4.50;;;17.30;73.20;;;;;;5043194;28;20029;-72
2023/09/15 14:56:37;;;;;;;10.13;4.95;;;17.30;73.60;;;;;;5054369;28;20099;-72
2023/09/15 14:59:05;;;;;;;12.60;5.45;;;17.20;73.60;;;;;;5054246;28;20033;-72
2023/09/15 15:01:32;;;;;;;12.80;4.93;;;17.20;73.30;;;;;;5030653;28;20491;-71
2023/09/15 15:03:59;;;;;;;14.30;5.38;;;17.20;73.30;;;;;;5034087;28;20049;-72
2023/09/15 15:06:26;;;;;;;10.85;5.20;;;17.20;72.90;;;;;;5032936;28;20112;-71
2023/09/15 15:08:54;;;;;;;11.40;5.22;;;17.30;72.40;;;;;;5033946;28;20428;-71
2023/09/15 15:11:21;;;;;;;10.80;5.03;;;17.30;72.20;;;;;;5046671;28;20040;-72
2023/09/15 15:13:48;;;;;;;12.07;5.70;;;17.30;71.60;;;;;;5053909;28;20056;-72
2023/09/15 15:16:16;;;;;;;9.30;5.05;;;17.20;72.20;;;;;;5053805;28;20064;-71